Time;durP1;ratioP1;P1;durP2;ratioP2;P2;SDS_P1;SDS_P2;PMS_P1;PMS_P2;Temp;Humidity;BMP_temperature;BMP_pressure;BME280_temperature;BME280_humidity;BME280_pressure;Samples;Min_cycle;Max_cycle;Signal;HPM_P1;HPM_P2
2022/06/20 00:00:48;;;;;;;9.00;3.60;;;;;;;22.74;45.46;99234.23;107416;1276;137887;-65
2022/06/20 00:03:22;;;;;;;5.10;3.20;;;;;;;22.73;45.35;99245.84;107520;1275;107937;-65
2022/06/20 00:05:52;;;;;;;10.60;3.30;;;;;;;22.73;45.35;99243.48;107441;1276;138570;-66
2022/06/20 00:08:21;;;;;;;8.80;3.50;;;;;;;22.73;45.39;99242.98;107591;1275;96156;-66
2022/06/20 00:10:51;;;;;;;9.80;3.70;;;;;;;22.74;45.37;99248.27;107603;1274;96071;-65
2022/06/20 00:13:31;;;;;;;10.40;3.70;;;;;;;22.73;45.38;99243.88;107547;1276;112797;-66
2022/06/20 00:16:00;;;;;;;9.00;3.60;;;;;;;22.71;45.46;99240.15;106520;1276;108921;-65
2022/06/20 00:18:31;;;;;;;10.30;3.40;;;;;;;22.69;45.38;99235.41;106538;1276;138431;-67
2022/06/20 00:20:59;;;;;;;8.50;3.30;;;;;;;22.66;45.63;99222.27;106079;1273;97861;-66
2022/06/20 00:23:28;;;;;;;6.90;3.50;;;;;;;22.63;45.53;99202.77;105963;1275;137885;-66
2022/06/20 00:25:57;;;;;;;11.50;3.60;;;;;;;22.58;45.70;99203.23;106058;1275;112116;-66
2022/06/20 00:28:25;;;;;;;8.40;3.80;;;;;;;22.52;45.84;99198.30;106095;1276;108224;-67
2022/06/20 00:30:54;;;;;;;7.60;3.40;;;;;;;22.46;45.89;99197.80;105972;1276;138502;-66
2022/06/20 00:33:22;;;;;;;7.00;3.80;;;;;;;22.41;45.92;99191.98;106044;1276;98639;-66
2022/06/20 00:35:53;;;;;;;9.30;3.60;;;;;;;22.37;46.22;99178.53;105985;1276;138236;-66
2022/06/20 00:38:23;;;;;;;6.80;4.10;;;;;;;22.34;46.39;99170.55;106049;1276;112733;-68
2022/06/20 00:40:53;;;;;;;9.30;3.80;;;;;;;22.28;46.33;99170.50;106026;1276;108195;-65
2022/06/20 00:43:26;;;;;;;10.10;3.50;;;;;;;22.24;46.32;99168.83;105950;1276;137808;-64
2022/06/20 00:45:58;;;;;;;6.50;3.90;;;;;;;22.20;46.35;99174.34;106074;1275;97833;-66
2022/06/20 00:48:35;;;;;;;8.40;3.40;;;;;;;22.16;46.59;99180.35;106008;1276;137648;-65
2022/06/20 00:51:06;;;;;;;;;;;;;;;22.15;46.64;99172.23;106046;1275;112171;-64
2022/06/20 00:53:42;;;;;;;9.50;3.80;;;;;;;22.11;46.85;99162.87;106011;1276;125843;-66
2022/06/20 00:56:17;;;;;;;7.50;3.90;;;;;;;22.06;46.89;99157.15;105964;1276;108822;-66
2022/06/20 00:58:54;;;;;;;8.10;3.40;;;;;;;22.01;47.00;99172.44;106079;1276;97917;-66
2022/06/20 01:01:32;;;;;;;8.00;3.40;;;;;;;21.95;47.06;99200.42;105971;1276;138093;-66
2022/06/20 01:04:08;;;;;;;8.00;3.70;;;;;;;21.94;47.10;99225.85;106289;1274;112669;-67
2022/06/20 01:06:43;;;;;;;7.20;3.40;;;;;;;21.95;46.98;99230.41;105918;1276;138713;-65
2022/06/20 01:09:15;;;;;;;6.80;3.50;;;;;;;21.95;47.03;99246.64;106558;1276;109073;-66
2022/06/20 01:11:48;;;;;;;7.40;3.40;;;;;;;21.95;47.09;99253.55;106007;1276;138259;-66
2022/06/20 01:14:23;;;;;;;6.60;3.60;;;;;;;21.96;47.21;99259.30;106027;1276;97912;-65
2022/06/20 01:16:56;;;;;;;6.60;4.00;;;;;;;21.96;47.24;99252.09;106956;1276;112033;-65
2022/06/20 01:19:39;;;;;;;8.70;3.40;;;;;;;21.94;47.23;99254.90;107424;1276;138602;-66
2022/06/20 01:22:20;;;;;;;7.50;4.40;;;;;;;21.93;47.39;99263.86;107541;1276;109147;-66
2022/06/20 01:25:00;;;;;;;9.90;5.10;;;;;;;21.91;47.23;99259.94;106258;1274;138350;-66
2022/06/20 01:27:34;;;;;;;8.90;4.80;;;;;;;21.90;47.42;99258.67;107593;1274;95840;-66
2022/06/20 01:30:04;;;;;;;8.90;4.30;;;;;;;21.86;47.43;99265.33;107459;1275;138718;-66
2022/06/20 01:32:32;;;;;;;11.00;3.90;;;;;;;21.82;47.62;99257.44;107538;1275;106704;-66
2022/06/20 01:35:04;;;;;;;7.90;4.00;;;;;;;21.78;47.65;99254.33;107413;1276;138194;-66
2022/06/20 01:37:38;;;;;;;7.40;4.00;;;;;;;21.75;47.81;99245.75;107440;1276;96245;-66
2022/06/20 01:40:11;;;;;;;12.80;4.10;;;;;;;21.71;48.09;99246.40;106558;1276;97847;-65
2022/06/20 01:42:42;;;;;;;7.10;3.60;;;;;;;21.67;48.19;99254.41;105949;1276;137972;-65
2022/06/20 01:48:02;;;;;;;10.40;4.60;;;;;;;21.56;48.58;99254.08;107386;1276;138111;-65
2022/06/20 01:50:32;;;;;;;7.20;4.10;;;;;;;21.50;48.66;99256.70;107537;1275;95844;-65
2022/06/20 01:53:04;;;;;;;4.50;3.70;;;;;;;21.45;48.87;99256.14;107379;1274;137790;-66
2022/06/20 01:55:34;;;;;;;7.50;4.10;;;;;;;21.41;48.96;99260.20;107583;1274;111795;-66
2022/06/20 01:58:09;;;;;;;9.90;4.30;;;;;;;21.37;49.25;99259.39;107565;1274;107604;-66
2022/06/20 02:00:38;;;;;;;6.80;4.30;;;;;;;21.32;49.46;99261.93;107378;1276;138009;-65
2022/06/20 02:03:13;;;;;;;6.00;4.10;;;;;;;21.27;49.50;99267.91;107582;1275;96000;-66
2022/06/20 02:05:45;;;;;;;8.00;4.10;;;;;;;21.23;49.70;99267.40;107459;1275;137851;-65
2022/06/20 02:08:16;;;;;;;13.20;4.60;;;;;;;21.17;49.70;99265.96;107465;1276;111285;-66
2022/06/20 02:10:51;;;;;;;6.60;4.30;;;;;;;21.13;49.92;99264.38;106131;1276;108966;-67
2022/06/20 02:13:23;;;;;;;10.00;4.40;;;;;;;21.08;50.19;99255.42;105967;1276;137737;-66
2022/06/20 02:15:56;;;;;;;10.90;4.60;;;;;;;21.02;50.39;99270.64;106037;1276;97833;-67
2022/06/20 02:18:27;;;;;;;11.50;5.40;;;;;;;20.98;50.72;99285.04;106032;1274;138045;-67
2022/06/20 02:20:59;;;;;;;9.50;5.20;;;;;;;20.92;50.66;99285.16;106101;1276;112561;-67
2022/06/20 02:23:31;;;;;;;11.60;4.60;;;;;;;20.89;51.08;99295.60;107434;1276;138908;-66
2022/06/20 02:26:02;;;;;;;7.50;4.90;;;;;;;20.82;51.18;99291.73;107534;1276;109378;-66
2022/06/20 02:28:36;;;;;;;7.40;5.00;;;;;;;20.77;51.34;99280.51;106273;1275;98136;-66
2022/06/20 02:31:07;;;;;;;7.70;5.20;;;;;;;20.74;51.65;99274.50;106004;1276;138184;-67
2022/06/20 02:33:37;;;;;;;8.60;5.20;;;;;;;20.69;51.73;99276.16;106077;1276;112945;-66
2022/06/20 02:36:08;;;;;;;10.20;5.30;;;;;;;20.66;51.78;99278.20;105934;1276;138411;-66
2022/06/20 02:38:36;;;;;;;7.30;5.30;;;;;;;20.64;52.01;99285.59;107551;1276;108823;-67
2022/06/20 02:41:06;;;;;;;8.00;5.30;;;;;;;20.60;52.23;99284.35;107356;1276;139499;-65
2022/06/20 02:43:39;;;;;;;10.40;5.50;;;;;;;20.61;52.35;99279.91;107424;1276;96295;-65
2022/06/20 02:46:13;;;;;;;12.40;5.70;;;;;;;20.59;52.41;99293.14;106533;1276;111274;-67
2022/06/20 02:48:46;;;;;;;12.90;5.70;;;;;;;20.60;52.70;99301.51;105933;1276;138569;-66
2022/06/20 02:51:21;;;;;;;11.50;5.80;;;;;;;20.61;53.02;99305.10;106090;1276;109603;-67
2022/06/20 02:53:55;;;;;;;9.60;6.00;;;;;;;20.62;52.93;99305.73;106363;1276;138242;-66
2022/06/20 02:56:28;;;;;;;12.90;5.90;;;;;;;20.62;53.24;99307.50;107056;1274;97841;-66
2022/06/20 02:59:00;;;;;;;10.80;5.50;;;;;;;20.61;53.33;99315.55;106097;1276;112537;-66
2022/06/20 03:01:35;;;;;;;12.50;5.60;;;;;;;20.60;53.60;99323.39;106096;1275;109059;-66
2022/06/20 03:04:05;;;;;;;14.80;5.40;;;;;;;20.60;53.77;99327.10;106495;1276;109563;-66
2022/06/20 03:06:38;;;;;;;8.60;5.30;;;;;;;20.60;54.17;99332.77;106098;1276;138245;-66
2022/06/20 03:09:07;;;;;;;12.10;5.40;;;;;;;20.60;54.45;99329.92;106101;1276;97816;-65
2022/06/20 03:11:37;;;;;;;7.30;5.20;;;;;;;20.60;54.60;99323.45;105980;1276;140952;-66
2022/06/20 03:14:10;;;;;;;10.20;5.10;;;;;;;20.61;54.57;99313.27;106063;1276;109179;-65
2022/06/20 03:16:40;;;;;;;13.80;5.50;;;;;;;20.61;55.05;99322.50;106070;1276;107429;-65
2022/06/20 03:19:15;;;;;;;12.40;4.80;;;;;;;20.56;55.45;99330.49;106108;1276;138675;-65
2022/06/20 03:21:46;;;;;;;14.30;4.50;;;;;;;20.54;55.90;99337.55;106146;1276;97860;-67
2022/06/20 03:24:18;;;;;;;8.40;4.80;;;;;;;20.52;55.91;99341.95;105966;1276;138611;-65
2022/06/20 03:26:46;;;;;;;12.70;4.60;;;;;;;20.52;56.25;99342.34;106040;1277;108059;-65
2022/06/20 03:29:18;;;;;;;13.30;4.50;;;;;;;20.51;56.31;99343.43;105971;1275;139061;-64
2022/06/20 03:31:47;;;;;;;10.20;4.70;;;;;;;20.52;56.49;99342.52;106060;1276;97950;-65
2022/06/20 03:34:15;;;;;;;10.80;5.00;;;;;;;20.50;56.67;99338.95;107553;1274;96133;-65
2022/06/20 03:36:47;;;;;;;13.00;4.70;;;;;;;20.52;56.74;99338.98;107401;1276;140673;-65
2022/06/20 03:39:16;;;;;;;14.30;4.70;;;;;;;20.60;56.87;99334.16;107534;1276;107522;-65
2022/06/20 03:41:45;;;;;;;10.00;4.30;;;;;;;20.68;56.88;99338.77;107410;1275;138902;-65
2022/06/20 03:44:19;;;;;;;17.60;4.80;;;;;;;20.74;56.98;99333.86;107318;1276;96397;-66
2022/06/20 03:46:53;;;;;;;8.80;4.30;;;;;;;20.81;56.78;99336.87;106059;1275;97797;-66
2022/06/20 03:49:27;;;;;;;12.80;3.90;;;;;;;20.89;56.89;99345.20;106011;1276;138441;-66
2022/06/20 03:52:03;;;;;;;11.30;4.40;;;;;;;20.96;56.87;99349.55;106039;1276;108972;-65
2022/06/20 03:54:39;;;;;;;13.10;5.30;;;;;;;21.00;56.73;99345.10;107442;1276;138821;-65
2022/06/20 03:57:21;;;;;;;12.00;4.40;;;;;;;21.07;56.81;99347.48;107545;1276;95882;-66
2022/06/20 03:59:57;;;;;;;13.10;3.90;;;;;;;21.14;56.59;99346.31;107405;1277;138747;-65
2022/06/20 04:02:33;;;;;;;15.70;4.60;;;;;;;21.19;56.73;99357.68;107543;1275;112438;-66
2022/06/20 04:05:08;;;;;;;16.00;4.50;;;;;;;21.28;56.75;99367.91;107429;1274;163248;-65
2022/06/20 04:07:41;;;;;;;11.90;4.10;;;;;;;21.33;56.42;99370.95;107436;1277;108806;-65
2022/06/20 04:13:10;;;;;;;9.40;4.30;;;;;;;21.48;56.32;99381.96;107355;1277;138377;-67
2022/06/20 04:15:44;;;;;;;12.80;4.20;;;;;;;21.45;56.41;99384.90;106067;1276;112037;-65
2022/06/20 04:18:29;;;;;;;10.60;4.10;;;;;;;21.52;56.28;99383.41;105915;1277;138822;-67
2022/06/20 04:21:09;;;;;;;12.00;4.20;;;;;;;21.57;56.12;99382.95;106048;1275;108210;-64
2022/06/20 04:23:44;;;;;;;12.30;4.30;;;;;;;21.64;56.13;99376.60;105939;1274;139104;-66
2022/06/20 04:26:18;;;;;;;18.30;4.20;;;;;;;21.72;56.05;99378.02;106001;1276;97839;-66
2022/06/20 04:28:53;;;;;;;17.80;4.80;;;;;;;21.78;55.81;99380.87;105943;1276;111831;-65
2022/06/20 04:31:39;;;;;;;11.10;4.50;;;;;;;21.83;55.77;99385.16;106862;1277;139093;-65
2022/06/20 04:34:15;;;;;;;18.70;4.50;;;;;;;21.91;55.55;99399.26;106406;1276;108903;-65
2022/06/20 04:36:51;;;;;;;17.60;4.60;;;;;;;21.97;55.64;99417.92;107378;1277;140082;-65
2022/06/20 04:39:26;;;;;;;15.70;4.10;;;;;;;22.04;55.54;99433.79;107515;1277;96418;-65
2022/06/20 04:42:01;;;;;;;14.00;3.70;;;;;;;22.17;55.53;99437.96;107414;1275;139434;-65
2022/06/20 04:44:37;;;;;;;13.00;4.70;;;;;;;22.29;55.40;99450.41;107553;1274;107860;-65
2022/06/20 04:47:18;;;;;;;17.70;4.10;;;;;;;22.47;55.20;99455.85;107388;1277;138339;-66
2022/06/20 04:49:47;;;;;;;11.50;4.00;;;;;;;22.63;54.78;99455.94;106588;1274;98024;-66
2022/06/20 04:52:24;;;;;;;11.20;4.10;;;;;;;22.72;54.58;99455.93;106063;1277;97772;-66
2022/06/20 04:54:53;;;;;;;10.70;4.90;;;;;;;22.75;54.32;99455.43;107411;1277;137814;-66
2022/06/20 04:57:23;;;;;;;10.30;4.20;;;;;;;22.77;54.34;99436.95;106788;1277;109186;-67
2022/06/20 04:59:54;;;;;;;7.10;3.20;;;;;;;22.81;54.18;99431.52;105962;1277;139136;-66
2022/06/20 05:02:24;;;;;;;11.80;4.60;;;;;;;22.78;54.21;99443.46;105998;1277;98016;-65
2022/06/20 05:04:56;;;;;;;10.90;4.10;;;;;;;22.74;54.16;99449.00;106056;1277;97884;-66
2022/06/20 05:07:28;;;;;;;14.30;3.70;;;;;;;22.67;54.36;99433.40;107571;1274;112743;-66
2022/06/20 05:10:02;;;;;;;11.60;4.00;;;;;;;22.64;54.55;99433.84;107568;1276;107853;-66
2022/06/20 05:12:40;;;;;;;9.60;3.80;;;;;;;22.61;54.55;99439.39;107405;1277;137978;-67
2022/06/20 05:15:15;;;;;;;13.50;4.30;;;;;;;22.57;54.60;99442.23;106641;1277;97854;-66
2022/06/20 05:17:45;;;;;;;9.50;4.40;;;;;;;22.59;54.55;99448.47;107449;1276;138597;-67
2022/06/20 05:20:22;;;;;;;8.30;3.40;;;;;;;22.57;54.63;99446.88;106454;1276;112442;-67
2022/06/20 05:22:56;;;;;;;11.20;4.00;;;;;;;22.67;54.61;99450.74;106011;1277;107892;-67
2022/06/20 05:25:26;;;;;;;10.50;4.10;;;;;;;22.70;54.26;99462.18;105866;1277;138547;-65
2022/06/20 05:27:58;;;;;;;9.80;3.90;;;;;;;22.66;54.37;99462.56;107495;1276;95947;-66
2022/06/20 05:30:31;;;;;;;11.70;4.20;;;;;;;22.58;54.43;99477.39;107459;1274;138225;-66
2022/06/20 05:33:05;;;;;;;12.00;4.40;;;;;;;22.48;54.36;99481.21;106496;1274;112554;-65
2022/06/20 05:35:42;;;;;;;10.30;3.70;;;;;;;22.42;54.61;99471.34;106004;1275;138735;-66
2022/06/20 05:38:18;;;;;;;10.60;3.80;;;;;;;22.35;54.66;99471.45;106058;1275;108760;-66
2022/06/20 05:40:51;;;;;;;13.10;4.30;;;;;;;22.30;54.64;99478.98;106101;1276;97828;-65
2022/06/20 05:43:29;;;;;;;11.70;4.00;;;;;;;22.28;54.78;99496.72;107493;1275;96080;-65
2022/06/20 05:46:00;;;;;;;9.50;4.20;;;;;;;22.22;54.89;99506.50;107485;1274;111453;-66
2022/06/20 05:48:33;;;;;;;10.90;4.00;;;;;;;22.17;54.87;99503.60;107386;1275;137994;-65
2022/06/20 05:51:04;;;;;;;12.70;5.10;;;;;;;22.15;55.15;99478.67;106326;1276;108109;-66
2022/06/20 05:53:35;;;;;;;13.50;4.00;;;;;;;22.15;55.06;99466.82;105899;1275;138255;-65
2022/06/20 05:56:12;;;;;;;10.90;3.90;;;;;;;22.20;55.23;99467.39;106105;1276;97860;-65
2022/06/20 05:58:44;;;;;;;8.70;3.80;;;;;;;22.24;55.08;99465.79;107485;1274;112899;-65
2022/06/20 06:01:18;;;;;;;9.40;3.90;;;;;;;22.22;55.22;99451.98;107310;1275;138896;-65
2022/06/20 06:03:58;;;;;;;12.50;3.80;;;;;;;22.21;55.40;99441.45;107447;1276;108871;-65
2022/06/20 06:06:32;;;;;;;10.70;3.80;;;;;;;22.28;55.58;99444.17;107389;1273;138126;-65
2022/06/20 06:09:06;;;;;;;10.70;4.00;;;;;;;22.33;55.48;99439.21;106458;1277;97873;-66
2022/06/20 06:11:40;;;;;;;15.00;5.00;;;;;;;22.38;55.33;99426.08;105898;1276;138102;-67
2022/06/20 06:14:19;;;;;;;9.00;3.80;;;;;;;22.42;55.34;99426.02;107452;1276;108403;-65
2022/06/20 06:16:52;;;;;;;12.60;3.70;;;;;;;22.48;55.22;99430.98;107428;1276;107814;-65
2022/06/20 06:19:35;;;;;;;13.00;3.60;;;;;;;22.51;55.31;99414.35;107406;1274;138813;-65
2022/06/20 06:22:07;;;;;;;9.30;4.50;;;;;;;22.55;55.08;99393.55;107503;1276;96017;-65
2022/06/20 06:24:39;;;;;;;15.00;3.70;;;;;;;22.55;55.07;99380.82;107339;1274;137658;-66
2022/06/20 06:27:12;;;;;;;9.50;3.90;;;;;;;22.59;55.16;99361.80;106301;1276;109210;-67
2022/06/20 06:29:47;;;;;;;10.90;3.80;;;;;;;22.64;55.08;99351.41;105839;1276;138384;-66
2022/06/20 06:32:21;;;;;;;12.60;4.40;;;;;;;22.67;54.83;99353.44;105928;1276;97916;-67
2022/06/20 06:34:58;;;;;;;15.70;4.20;;;;;;;22.79;54.92;99354.27;105992;1276;97954;-65
2022/06/20 06:37:30;;;;;;;;;;;;;;;22.92;54.63;99354.27;106022;1277;112173;-67
2022/06/20 06:40:06;;;;;;;14.50;4.60;;;;;;;22.87;54.53;99364.94;105966;1276;108932;-65
2022/06/20 06:42:35;;;;;;;16.00;4.30;;;;;;;22.89;54.62;99386.78;105847;1276;138705;-66
2022/06/20 06:45:08;;;;;;;12.20;4.00;;;;;;;22.98;54.60;99400.14;106112;1275;98080;-66
2022/06/20 06:47:41;;;;;;;12.60;4.50;;;;;;;23.09;54.61;99406.31;107418;1274;138606;-66
2022/06/20 06:50:23;;;;;;;12.10;3.90;;;;;;;23.22;54.31;99417.58;106481;1276;110857;-66
2022/06/20 06:52:58;;;;;;;18.40;4.20;;;;;;;23.33;54.13;99402.38;107494;1274;109054;-66
2022/06/20 06:55:33;;;;;;;14.40;4.80;;;;;;;23.48;54.21;99385.73;107066;1276;109031;-66
2022/06/20 06:58:10;;;;;;;14.60;4.50;;;;;;;23.83;54.00;99339.86;105855;1276;98430;-65
2022/06/20 07:00:41;;;;;;;13.50;4.80;;;;;;;23.82;53.36;99326.23;105784;1276;138360;-66
2022/06/20 07:03:17;;;;;;;18.30;4.80;;;;;;;23.55;53.34;99328.61;107301;1276;111813;-66
2022/06/20 07:05:54;;;;;;;11.90;4.40;;;;;;;23.31;53.92;99357.70;107273;1276;138660;-66
2022/06/20 07:08:47;;;;;;;8.80;4.10;;;;;;;23.09;54.29;99378.59;106616;1276;107860;-66
2022/06/20 07:11:21;;;;;;;10.70;4.40;;;;;;;22.97;54.78;99428.05;105876;1276;138233;-64
2022/06/20 07:13:59;;;;;;;12.60;4.20;;;;;;;22.74;55.17;99430.70;106031;1276;97861;-66
2022/06/20 07:16:34;;;;;;;12.60;4.50;;;;;;;22.61;55.82;99444.57;107517;1276;111898;-66
2022/06/20 07:19:07;;;;;;;12.30;4.70;;;;;;;22.55;56.27;99440.11;106268;1275;138156;-65
2022/06/20 07:21:39;;;;;;;10.90;4.80;;;;;;;22.59;56.80;99439.98;107521;1274;108845;-67
2022/06/20 07:24:12;;;;;;;16.30;4.80;;;;;;;22.61;56.86;99445.27;107268;1276;138754;-66
2022/06/20 07:26:46;;;;;;;13.70;5.50;;;;;;;22.62;56.92;99446.76;107469;1276;96210;-66
2022/06/20 07:29:18;;;;;;;16.00;4.50;;;;;;;22.70;56.87;99426.55;107380;1276;139504;-66
2022/06/20 07:31:51;;;;;;;13.50;4.90;;;;;;;22.94;56.68;99434.54;106342;1274;108831;-66
2022/06/20 07:34:28;;;;;;;13.70;4.90;;;;;;;23.19;56.55;99426.95;105997;1276;108928;-67
2022/06/20 07:37:00;;;;;;;12.40;5.20;;;;;;;23.41;55.99;99433.10;106960;1276;140462;-69
2022/06/20 07:39:34;;;;;;;9.60;4.60;;;;;;;23.49;55.82;99438.36;107482;1274;96074;-67
2022/06/20 07:42:07;;;;;;;11.00;4.70;;;;;;;23.59;55.70;99437.80;107355;1275;138439;-67
2022/06/20 07:44:40;;;;;;;11.40;5.10;;;;;;;23.70;55.43;99432.61;106798;1276;109566;-67
2022/06/20 07:47:15;;;;;;;11.50;5.50;;;;;;;23.86;55.46;99439.61;107376;1276;138324;-67
2022/06/20 07:49:48;;;;;;;11.90;4.70;;;;;;;24.09;55.06;99424.58;107357;1276;96052;-67
2022/06/20 07:52:24;;;;;;;13.30;5.80;;;;;;;24.39;54.44;99412.77;107488;1274;96054;-66
2022/06/20 07:54:59;;;;;;;14.20;5.50;;;;;;;24.69;53.89;99401.16;107253;1276;138375;-69
2022/06/20 07:57:34;;;;;;;10.50;5.60;;;;;;;25.55;53.22;99375.98;107497;1274;110268;-66
2022/06/20 08:00:09;;;;;;;14.80;5.50;;;;;;;25.94;51.92;99354.45;107355;1276;138251;-66
2022/06/20 08:02:44;;;;;;;9.90;5.50;;;;;;;25.92;51.28;99336.02;106172;1276;98014;-62
2022/06/20 08:05:19;;;;;;;11.60;5.00;;;;;;;25.88;50.82;99336.03;105846;1276;137862;-68
2022/06/20 08:07:52;;;;;;;17.40;6.20;;;;;;;25.82;50.84;99327.08;105970;1274;112655;-62
2022/06/20 08:10:28;;;;;;;10.10;4.70;;;;;;;26.07;50.95;99317.35;106008;1276;109059;-61
2022/06/20 08:13:03;;;;;;;13.90;5.60;;;;;;;27.38;49.85;99307.83;106694;1276;138125;-63
2022/06/20 08:15:40;;;;;;;12.10;5.30;;;;;;;28.80;47.94;99285.10;105871;1275;97890;-61
2022/06/20 08:18:09;;;;;;;10.80;5.40;;;;;;;29.98;44.87;99270.12;105825;1276;138194;-61
2022/06/20 08:20:43;;;;;;;10.80;5.40;;;;;;;30.62;42.51;99250.29;106010;1276;112480;-62
2022/06/20 08:23:17;;;;;;;14.60;5.20;;;;;;;31.07;41.47;99231.25;105957;1276;138875;-61
2022/06/20 08:25:50;;;;;;;10.90;4.60;;;;;;;31.46;40.70;99226.43;105689;1276;372326;-62
2022/06/20 08:28:21;;;;;;;13.80;5.00;;;;;;;31.84;39.91;99221.59;105949;1276;97875;-62
2022/06/20 08:30:52;;;;;;;11.30;4.90;;;;;;;31.93;38.75;99211.60;105850;1276;137996;-61
2022/06/20 08:33:26;;;;;;;12.10;5.00;;;;;;;31.95;38.73;99200.14;105889;1276;112744;-62
2022/06/20 08:35:59;;;;;;;11.20;5.10;;;;;;;32.03;38.56;99189.33;107332;1276;138702;-61
2022/06/20 08:38:35;;;;;;;14.90;5.20;;;;;;;32.14;38.13;99178.50;107316;1276;110357;-61
2022/06/20 08:41:26;;;;;;;;;;;;;;;32.19;37.59;99178.89;107376;1276;138418;-61
2022/06/20 08:44:27;;;;;;;12.50;5.70;;;;;;;31.68;37.03;99183.45;105563;1281;97865;-61
2022/06/20 08:47:20;;;;;;;9.90;4.50;;;;;;;31.29;37.91;99180.89;105642;1280;111654;-61
2022/06/20 08:50:17;;;;;;;14.90;4.80;;;;;;;31.23;37.92;99174.21;105665;1280;109017;-62
2022/06/20 08:53:41;;;;;;;11.80;5.10;;;;;;;31.25;37.97;99188.81;104921;1285;141124;-62
2022/06/20 08:56:36;;;;;;;15.50;4.50;;;;;;;31.60;38.04;99196.52;105068;1285;97839;-63
2022/06/20 08:59:17;;;;;;;10.60;4.30;;;;;;;31.89;37.79;99197.27;104891;1285;138720;-62
2022/06/20 09:01:55;;;;;;;12.30;3.90;;;;;;;32.23;37.26;99213.16;105006;1285;113089;-60
2022/06/20 09:04:41;;;;;;;17.30;4.50;;;;;;;32.51;36.79;99219.27;104908;1285;108575;-72
2022/06/20 09:07:51;;;;;;;12.10;3.80;;;;;;;32.91;36.12;99215.02;106297;1285;138397;-69
2022/06/20 09:10:32;;;;;;;12.50;4.30;;;;;;;33.41;35.53;99205.96;106411;1285;96145;-69
2022/06/20 09:13:36;;;;;;;18.30;4.20;;;;;;;33.82;34.94;99199.14;105685;1286;140408;-67
2022/06/20 09:16:13;;;;;;;12.90;4.50;;;;;;;34.26;34.67;99190.73;105051;1285;110946;-68
2022/06/20 09:19:00;;;;;;;18.50;4.20;;;;;;;34.54;33.66;99179.30;105011;1285;138148;-66
2022/06/20 09:21:34;;;;;;;19.70;4.30;;;;;;;34.60;33.17;99175.66;105366;1282;107851;-68
2022/06/20 09:24:19;;;;;;;16.00;3.80;;;;;;;34.83;32.87;99167.38;105302;1282;139718;-69
2022/06/20 09:26:59;;;;;;;17.70;4.20;;;;;;;34.93;31.75;99165.13;105424;1282;97860;-69
2022/06/20 09:29:45;;;;;;;17.60;4.40;;;;;;;34.80;31.96;99163.42;106591;1276;139322;-68
2022/06/20 09:32:42;;;;;;;20.60;4.40;;;;;;;34.91;32.08;99161.09;107524;1274;109320;-69
2022/06/20 09:35:27;;;;;;;18.60;4.50;;;;;;;35.04;32.01;99154.05;107403;1275;139106;-69
2022/06/20 09:38:45;;;;;;;14.50;4.10;;;;;;;35.31;32.28;99162.77;107463;1276;96057;-69
2022/06/20 09:41:25;;;;;;;16.60;4.00;;;;;;;35.67;31.48;99174.92;106699;1281;140501;-69
2022/06/20 09:44:09;;;;;;;14.40;4.30;;;;;;;35.51;30.88;99181.57;106869;1282;111816;-69
2022/06/20 09:46:48;;;;;;;12.40;3.90;;;;;;;35.20;31.22;99187.70;106827;1281;109640;-69
2022/06/20 09:49:27;;;;;;;16.40;4.20;;;;;;;34.76;31.29;99194.77;105989;1282;139131;-69
2022/06/20 09:52:06;;;;;;;13.10;3.90;;;;;;;34.36;31.69;99200.85;105667;1281;97876;-69
2022/06/20 09:54:46;;;;;;;16.50;4.30;;;;;;;34.07;32.05;99200.16;105585;1279;138185;-67
2022/06/20 09:57:33;;;;;;;15.80;4.00;;;;;;;33.78;32.44;99199.65;105663;1281;111013;-68
2022/06/20 10:00:04;;;;;;;;;;;;;;;33.48;32.93;99195.83;106775;1281;141745;-68
2022/06/20 10:02:51;;;;;;;15.50;4.80;;;;;;;33.39;33.47;99194.34;106852;1281;108849;-68
2022/06/20 10:05:36;;;;;;;22.40;4.00;;;;;;;33.49;34.00;99204.01;106736;1280;138257;-68
2022/06/20 10:08:15;;;;;;;9.40;3.80;;;;;;;33.61;33.63;99209.55;105855;1282;97971;-68
2022/06/20 10:10:49;;;;;;;15.10;4.80;;;;;;;33.74;34.40;99214.66;106851;1282;111498;-68
2022/06/20 10:13:39;;;;;;;15.80;4.80;;;;;;;33.93;34.78;99214.68;106765;1281;138156;-68
2022/06/20 10:16:15;;;;;;;18.30;5.30;;;;;;;34.31;34.78;99208.53;105797;1281;108697;-68
2022/06/20 10:18:52;;;;;;;15.70;4.60;;;;;;;34.55;34.46;99205.84;105817;1276;139453;-66
2022/06/20 10:21:28;;;;;;;14.80;4.60;;;;;;;34.70;34.14;99203.94;107522;1276;95914;-68
2022/06/20 10:24:15;;;;;;;13.50;4.40;;;;;;;34.87;34.04;99196.54;107370;1276;139226;-68
2022/06/20 10:27:11;;;;;;;15.70;4.30;;;;;;;34.96;34.15;99194.30;107487;1276;108016;-64
2022/06/20 10:29:55;;;;;;;13.80;4.70;;;;;;;34.78;33.80;99196.01;107275;1274;138964;-69
2022/06/20 10:32:39;;;;;;;12.30;4.50;;;;;;;34.62;34.19;99203.75;106198;1275;97845;-67
2022/06/20 10:35:17;;;;;;;16.10;5.00;;;;;;;34.57;34.77;99203.79;105941;1276;138086;-66
2022/06/20 10:37:57;;;;;;;18.20;5.50;;;;;;;34.52;34.72;99199.98;107084;1276;112685;-66
2022/06/20 10:40:33;;;;;;;11.70;5.30;;;;;;;34.41;34.88;99195.93;105968;1276;109368;-66
2022/06/20 10:43:09;;;;;;;14.40;5.40;;;;;;;34.18;35.10;99194.37;105858;1274;138080;-68
2022/06/20 10:45:45;;;;;;;11.40;5.40;;;;;;;33.99;35.22;99193.30;107490;1275;96412;-67
2022/06/20 10:48:38;;;;;;;9.90;4.90;;;;;;;33.75;35.47;99185.61;107367;1275;137867;-67
2022/06/20 10:51:14;;;;;;;12.00;5.10;;;;;;;33.62;36.03;99176.95;107498;1275;111502;-68
2022/06/20 10:53:51;;;;;;;10.60;5.10;;;;;;;33.44;36.05;99178.16;107409;1275;138084;-67
2022/06/20 10:56:29;;;;;;;8.50;5.80;;;;;;;33.20;36.38;99195.23;107405;1275;108998;-67
2022/06/20 10:59:21;;;;;;;14.40;5.70;;;;;;;32.84;36.41;99217.23;107389;1276;96842;-68
2022/06/20 11:01:52;;;;;;;11.90;5.00;;;;;;;32.45;37.21;99234.92;107523;1276;96028;-68
2022/06/20 11:04:36;;;;;;;11.20;5.60;;;;;;;32.11;37.32;99239.73;107492;1276;112282;-69
2022/06/20 11:07:14;;;;;;;10.60;5.50;;;;;;;31.53;37.61;99258.75;107397;1276;137950;-67
2022/06/20 11:09:52;;;;;;;11.60;7.40;;;;;;;30.94;38.22;99279.52;107490;1276;108925;-68
2022/06/20 11:12:35;;;;;;;8.90;6.10;;;;;;;30.32;38.93;99292.33;105986;1274;140237;-68
2022/06/20 11:15:12;;;;;;;10.20;6.10;;;;;;;29.48;39.30;99302.11;106094;1274;98410;-68
2022/06/20 11:17:50;;;;;;;7.40;5.30;;;;;;;28.59;40.32;99324.46;105961;1275;138076;-68
2022/06/20 11:20:26;;;;;;;8.20;5.60;;;;;;;27.91;41.58;99332.55;106058;1276;109122;-68
2022/06/20 11:23:06;;;;;;;9.70;6.10;;;;;;;27.20;42.54;99330.73;107510;1275;109045;-68
2022/06/20 11:25:46;;;;;;;7.50;5.70;;;;;;;26.50;43.40;99345.58;107479;1276;97317;-68
2022/06/20 11:28:43;;;;;;;12.60;6.00;;;;;;;26.01;44.87;99352.56;107502;1275;96044;-69
2022/06/20 11:31:20;;;;;;;7.80;5.60;;;;;;;25.56;45.84;99352.77;107348;1274;137829;-68
2022/06/20 11:34:09;;;;;;;14.20;6.40;;;;;;;25.11;46.79;99353.89;107501;1275;109112;-68
2022/06/20 11:36:54;;;;;;;9.50;5.70;;;;;;;24.76;47.52;99346.04;107384;1275;138266;-68
2022/06/20 11:39:45;;;;;;;12.10;6.00;;;;;;;24.55;48.58;99336.30;107369;1274;95977;-67
2022/06/20 11:42:45;;;;;;;9.40;5.30;;;;;;;24.33;49.17;99328.12;107385;1276;137842;-67
2022/06/20 11:45:34;;;;;;;9.20;5.60;;;;;;;24.08;49.85;99322.71;107415;1275;111543;-67
2022/06/20 11:48:19;;;;;;;11.30;5.70;;;;;;;23.95;50.51;99317.67;107405;1274;138290;-68
2022/06/20 11:50:54;;;;;;;11.40;5.90;;;;;;;23.90;50.61;99318.17;107483;1275;107970;-68
2022/06/20 11:53:44;;;;;;;10.50;5.80;;;;;;;23.84;50.87;99319.45;107398;1276;138850;-68
2022/06/20 11:56:21;;;;;;;10.90;4.60;;;;;;;23.81;51.21;99307.02;107525;1274;96312;-68
2022/06/20 11:59:29;;;;;;;10.70;5.60;;;;;;;23.80;51.48;99312.45;107284;1274;138334;-67
2022/06/20 12:02:11;;;;;;;11.40;5.90;;;;;;;23.78;51.55;99327.77;106010;1276;108614;-67